Time;durP1;ratioP1;P1;durP2;ratioP2;P2;SDS_P1;SDS_P2;PMS_P1;PMS_P2;Temp;Humidity;BMP_temperature;BMP_pressure;BME280_temperature;BME280_humidity;BME280_pressure;Samples;Min_cycle;Max_cycle;Signal;HPM_P1;HPM_P2
2023/11/08 00:01:36;;;;;;;48.15;6.68;;;;;;;19.75;100.00;101672.78;21133296;27;20047;-74
2023/11/08 00:11:59;;;;;;;51.90;5.65;;;;;;;19.80;100.00;101665.59;21158662;27;20052;-75
2023/11/08 00:22:23;;;;;;;40.67;4.90;;;;;;;19.71;100.00;101649.56;21130170;27;20106;-75
2023/11/08 00:32:46;;;;;;;46.15;6.38;;;;;;;19.58;100.00;101647.00;21172377;27;20039;-75
2023/11/08 00:43:10;;;;;;;44.45;5.60;;;;;;;19.41;100.00;101647.09;21212464;27;20043;-75
2023/11/08 00:53:33;;;;;;;50.03;6.25;;;;;;;19.31;100.00;101634.66;21154448;27;20055;-75
2023/11/08 01:03:57;;;;;;;35.05;5.28;;;;;;;19.13;100.00;101632.97;21150438;27;20104;-75
2023/11/08 01:14:21;;;;;;;45.38;5.50;;;;;;;19.03;100.00;101634.78;21146537;27;20043;-75
2023/11/08 01:24:49;;;;;;;43.60;5.90;;;;;;;18.89;100.00;101620.63;21148477;27;20526;-75
2023/11/08 01:35:12;;;;;;;39.30;5.57;;;;;;;18.77;100.00;101619.78;21164442;27;20043;-74
2023/11/08 01:45:36;;;;;;;44.63;5.72;;;;;;;18.74;100.00;101609.09;21138914;27;20283;-74
2023/11/08 01:55:58;;;;;;;36.25;5.32;;;;;;;18.59;100.00;101589.53;21138941;28;20154;-74
2023/11/08 02:06:23;;;;;;;38.63;6.53;;;;;;;18.46;100.00;101602.91;21167868;28;20067;-75
2023/11/08 02:16:47;;;;;;;99.93;47.67;;;;;;;18.39;100.00;101595.78;21146590;28;20042;-75
2023/11/08 02:27:11;;;;;;;32.20;6.05;;;;;;;18.28;100.00;101598.50;21144541;28;20257;-75
2023/11/08 02:37:34;;;;;;;41.78;6.28;;;;;;;18.28;100.00;101604.75;21126659;28;20125;-75
2023/11/08 02:47:58;;;;;;;30.30;4.85;;;;;;;18.16;100.00;101599.44;21158540;27;20384;-75
2023/11/08 02:58:21;;;;;;;48.17;5.40;;;;;;;18.18;100.00;101597.63;21137748;27;20419;-74
2023/11/08 03:08:45;;;;;;;26.38;4.93;;;;;;;18.27;100.00;101597.63;21162102;27;20035;-74
2023/11/08 03:19:08;;;;;;;34.50;5.03;;;;;;;18.28;100.00;101596.72;21173265;27;20059;-75
2023/11/08 03:29:33;;;;;;;23.63;3.45;;;;;;;18.34;100.00;101598.50;21134824;27;20437;-75
2023/11/08 03:39:55;;;;;;;27.08;4.63;;;;;;;18.28;100.00;101603.88;21191881;27;20050;-75
2023/11/08 03:50:20;;;;;;;31.80;4.75;;;;;;;18.32;100.00;101605.63;21157441;27;20115;-74
2023/11/08 04:00:43;;;;;;;22.67;4.47;;;;;;;18.23;100.00;101606.56;21148726;27;20465;-74
2023/11/08 04:11:07;;;;;;;16.58;3.78;;;;;;;18.20;100.00;101603.88;21174475;27;20059;-75
2023/11/08 04:21:30;;;;;;;24.08;4.43;;;;;;;18.11;100.00;101600.34;21152945;27;20617;-74
2023/11/08 04:31:54;;;;;;;22.83;4.30;;;;;;;18.02;100.00;101605.69;21163815;27;20088;-74
2023/11/08 04:42:16;;;;;;;23.17;4.05;;;;;;;17.91;100.00;101608.38;21191082;27;20441;-74
2023/11/08 04:52:40;;;;;;;26.05;4.40;;;;;;;17.84;100.00;101614.63;21176055;27;20062;-74
2023/11/08 05:03:03;;;;;;;18.40;3.58;;;;;;;17.80;100.00;101626.19;21158002;27;20039;-75
2023/11/08 05:13:27;;;;;;;20.48;3.70;;;;;;;17.83;100.00;101635.09;21135132;27;20051;-74
2023/11/08 05:23:50;;;;;;;23.17;3.63;;;;;;;18.02;100.00;101640.44;21137518;27;20067;-74
2023/11/08 05:34:14;;;;;;;22.15;3.25;;;;;;;18.10;100.00;101646.66;21142031;27;20055;-75
2023/11/08 05:44:36;;;;;;;18.98;4.10;;;;;;;18.22;100.00;101668.91;21157660;27;20052;-75
2023/11/08 05:55:00;;;;;;;16.98;3.50;;;;;;;18.68;100.00;101676.88;21166398;27;20082;-74
2023/11/08 06:05:23;;;;;;;17.55;3.22;;;;;;;19.47;100.00;101693.50;21146067;28;20050;-75
2023/11/08 06:15:47;;;;;;;18.40;2.55;;;;;;;20.16;100.00;101703.69;21170413;28;20047;-74
2023/11/08 06:26:09;;;;;;;18.83;3.42;;;;;;;20.81;100.00;101688.75;21165484;28;20071;-75
2023/11/08 06:36:33;;;;;;;20.02;3.47;;;;;;;21.58;100.00;101684.19;21187707;27;20411;-75
2023/11/08 06:46:56;;;;;;;21.90;3.40;;;;;;;22.24;100.00;101674.19;21147949;28;20048;-75
2023/11/08 06:57:21;;;;;;;18.65;2.88;;;;;;;22.97;100.00;101681.72;21198989;27;20163;-76
2023/11/08 07:07:44;;;;;;;22.83;3.38;;;;;;;23.68;100.00;101673.00;21193737;27;20093;-75
2023/11/08 07:18:09;;;;;;;26.30;3.63;;;;;;;24.15;100.00;101666.44;21170929;27;20449;-75
2023/11/08 07:28:32;;;;;;;23.45;2.67;;;;;;;24.82;100.00;101653.78;21239884;27;20043;-75
2023/11/08 07:38:57;;;;;;;21.52;2.60;;;;;;;25.33;100.00;101638.75;21167893;27;20073;-75
2023/11/08 07:49:20;;;;;;;17.00;2.30;;;;;;;25.48;100.00;101634.66;21147685;27;20060;-75
2023/11/08 07:59:44;;;;;;;27.83;3.53;;;;;;;25.97;100.00;101631.25;21155199;27;20146;-75
2023/11/08 08:10:09;;;;;;;21.90;2.67;;;;;;;26.35;100.00;101640.78;21130862;27;20297;-76
2023/11/08 08:20:33;;;;;;;25.48;3.00;;;;;;;26.84;92.56;101630.84;21195354;27;20054;-75
2023/11/08 08:30:56;;;;;;;28.23;3.05;;;;;;;27.29;88.75;101628.22;21170147;27;20054;-76
2023/11/08 08:41:20;;;;;;;22.67;3.45;;;;;;;27.26;86.79;101618.34;21181470;27;20054;-76
2023/11/08 08:51:43;;;;;;;21.02;2.28;;;;;;;26.90;88.06;101625.22;21303276;27;20116;-76
2023/11/08 09:02:08;;;;;;;13.57;2.35;;;;;;;26.92;90.25;101605.25;21153667;27;20052;-77
2023/11/08 09:12:31;;;;;;;25.67;4.05;;;;;;;26.99;90.13;101614.00;21158172;27;20132;-76
2023/11/08 09:22:56;;;;;;;22.98;2.90;;;;;;;27.12;90.32;101590.00;21159119;27;20100;-76
2023/11/08 09:33:18;;;;;;;16.70;2.55;;;;;;;27.33;89.10;101578.31;21181055;27;20483;-76
2023/11/08 09:43:43;;;;;;;17.38;2.53;;;;;;;27.43;88.09;101559.84;21203284;27;20103;-76
2023/11/08 09:54:06;;;;;;;23.95;3.40;;;;;;;27.36;88.01;101535.69;21192579;27;20047;-76
2023/11/08 10:04:31;;;;;;;23.45;2.65;;;;;;;27.28;87.38;101520.66;21165270;28;20427;-75
2023/11/08 10:14:59;;;;;;;17.48;2.55;;;;;;;27.11;85.88;101496.09;21159474;27;20047;-75
2023/11/08 10:25:26;;;;;;;13.75;2.15;;;;;;;27.25;83.97;101489.13;21158918;27;20039;-75
2023/11/08 10:35:49;;;;;;;15.02;1.95;;;;;;;27.06;85.49;101476.41;21197140;27;20125;-76
2023/11/08 10:46:13;;;;;;;19.20;2.75;;;;;;;26.82;86.51;101472.84;21146697;27;20052;-75
2023/11/08 10:56:37;;;;;;;22.85;3.55;;;;;;;26.42;90.20;101457.28;21146701;27;20067;-75
2023/11/08 11:07:05;;;;;;;25.73;2.67;;;;;;;26.14;96.34;101452.88;21153654;27;20055;-76
2023/11/08 11:17:29;;;;;;;;;;;;;;;26.18;97.32;101461.78;21148047;27;20063;-77
2023/11/08 11:27:54;;;;;;;26.17;3.53;;;;;;;26.11;99.99;101446.72;21185401;27;19920;-77
2023/11/08 11:38:26;;;;;;;26.30;3.25;;;;;;;25.63;100.00;101447.56;21164679;27;20613;-77
2023/11/08 11:49:03;;;;;;;22.23;3.80;;;;;;;25.38;100.00;101430.41;21147392;27;20051;-76
2023/11/08 11:59:26;;;;;;;28.10;3.53;;;;;;;25.13;100.00;101408.75;21132013;27;20477;-76
2023/11/08 12:09:51;;;;;;;22.20;3.83;;;;;;;25.18;100.00;101398.66;21213162;27;20043;-76
2023/11/08 12:20:13;;;;;;;24.15;3.72;;;;;;;25.06;100.00;101371.19;21138408;27;20124;-76
2023/11/08 12:30:39;;;;;;;21.45;3.28;;;;;;;25.16;100.00;101375.31;21181236;27;20035;-76
2023/11/08 12:41:06;;;;;;;25.08;4.13;;;;;;;25.32;100.00;101374.75;21152153;27;20044;-76
2023/11/08 12:51:34;;;;;;;;;;;;;;;25.25;100.00;101351.56;21143033;27;20047;-75
2023/11/08 13:02:14;;;;;;;31.07;4.63;;;;;;;25.34;100.00;101329.59;21156461;27;19934;-75
2023/11/08 13:12:37;;;;;;;24.92;3.35;;;;;;;25.07;100.00;101332.41;21161591;27;20048;-75
2023/11/08 13:23:01;;;;;;;25.70;4.07;;;;;;;24.86;100.00;101320.50;21167690;27;20100;-75
2023/11/08 13:33:31;;;;;;;23.08;3.42;;;;;;;24.66;100.00;101337.38;21153182;27;20100;-75
2023/11/08 13:43:53;;;;;;;22.52;3.33;;;;;;;24.55;100.00;101334.13;21125857;27;20104;-75
2023/11/08 13:54:18;;;;;;;26.27;3.45;;;;;;;24.41;100.00;101350.81;21149207;27;20156;-75
2023/11/08 14:04:41;;;;;;;28.08;3.47;;;;;;;24.39;100.00;101343.69;21158298;28;20104;-74
2023/11/08 14:15:10;;;;;;;29.85;3.83;;;;;;;24.34;100.00;101342.94;21168870;28;20099;-74
2023/11/08 14:25:35;;;;;;;21.38;3.58;;;;;;;24.42;100.00;101357.94;21141448;28;20048;-75
2023/11/08 14:36:01;;;;;;;27.42;3.65;;;;;;;24.41;100.00;101352.63;21176183;28;20495;-75
2023/11/08 14:46:25;;;;;;;25.73;3.22;;;;;;;24.40;100.00;101345.44;21156087;27;20047;-75
2023/11/08 14:56:50;;;;;;;25.40;3.50;;;;;;;24.25;100.00;101363.00;21157795;27;20047;-75
2023/11/08 15:07:12;;;;;;;28.52;4.32;;;;;;;24.01;100.00;101361.03;21155260;27;20092;-75
2023/11/08 15:17:38;;;;;;;30.88;3.83;;;;;;;23.80;100.00;101358.03;21216033;27;20055;-75
2023/11/08 15:28:00;;;;;;;22.80;3.40;;;;;;;23.54;100.00;101363.31;21151666;27;20055;-76
2023/11/08 15:38:24;;;;;;;26.45;4.30;;;;;;;23.16;100.00;101352.66;21158628;27;20161;-75
2023/11/08 15:48:48;;;;;;;24.92;3.63;;;;;;;22.95;100.00;101360.38;21134549;27;20047;-75
2023/11/08 15:59:14;;;;;;;28.35;3.97;;;;;;;22.74;100.00;101358.22;21168421;27;20128;-73
2023/11/08 16:09:37;;;;;;;23.33;3.38;;;;;;;22.49;100.00;101365.13;21190863;27;20043;-74
2023/11/08 16:20:03;;;;;;;32.53;4.57;;;;;;;22.09;100.00;101378.59;21181750;27;20051;-75
2023/11/08 16:30:27;;;;;;;31.67;3.75;;;;;;;22.01;100.00;101394.88;21199647;27;20107;-74
2023/11/08 16:40:55;;;;;;;20.27;3.40;;;;;;;21.78;100.00;101411.47;21182949;27;20295;-74
2023/11/08 16:51:17;;;;;;;19.20;3.17;;;;;;;21.82;100.00;101414.97;21170335;27;20402;-74
2023/11/08 17:01:42;;;;;;;16.85;3.03;;;;;;;21.94;100.00;101420.09;21144912;27;20066;-74
2023/11/08 17:12:06;;;;;;;19.05;3.65;;;;;;;22.05;100.00;101414.53;21151280;27;20504;-73
2023/11/08 17:22:30;;;;;;;20.10;3.20;;;;;;;22.14;100.00;101438.53;21203581;27;20491;-73
2023/11/08 17:32:53;;;;;;;24.10;3.78;;;;;;;22.17;100.00;101428.63;21166069;27;20459;-73
2023/11/08 17:43:18;;;;;;;20.13;4.13;;;;;;;22.22;100.00;101440.16;21163404;27;20050;-73
2023/11/08 17:53:41;;;;;;;21.98;4.70;;;;;;;22.05;100.00;101449.50;21193825;27;20071;-74
2023/11/08 18:04:06;;;;;;;21.02;4.05;;;;;;;21.96;100.00;101445.19;21154708;27;20043;-73
2023/11/08 18:14:32;;;;;;;15.45;2.83;;;;;;;21.79;100.00;101439.25;21155431;27;20131;-74
2023/11/08 18:24:56;;;;;;;24.52;4.65;;;;;;;21.51;100.00;101444.25;21179962;27;20035;-74
2023/11/08 18:35:19;;;;;;;22.75;3.65;;;;;;;21.32;100.00;101453.56;21179880;27;20049;-74
2023/11/08 18:45:44;;;;;;;22.85;3.65;;;;;;;21.14;100.00;101451.13;21185194;27;20043;-74
2023/11/08 18:56:07;;;;;;;16.77;3.70;;;;;;;21.03;100.00;101448.63;21208472;27;20152;-75
2023/11/08 19:06:31;;;;;;;53.58;29.40;;;;;;;20.79;100.00;101451.72;21233556;27;20050;-74
2023/11/08 19:16:54;;;;;;;28.85;5.70;;;;;;;20.68;100.00;101447.38;21227129;27;20082;-74
2023/11/08 19:27:18;;;;;;;16.38;4.03;;;;;;;20.57;100.00;101456.50;21231437;27;20158;-75
2023/11/08 19:37:40;;;;;;;23.00;5.20;;;;;;;20.49;100.00;101461.97;21202323;27;20043;-73
2023/11/08 19:48:05;;;;;;;26.98;4.28;;;;;;;20.39;100.00;101438.00;21222949;27;20055;-73
2023/11/08 19:58:27;;;;;;;22.63;4.25;;;;;;;20.25;100.00;101422.06;21225753;27;20043;-75
2023/11/08 20:08:51;;;;;;;24.73;4.30;;;;;;;20.16;100.00;101414.13;21209548;27;20039;-75
2023/11/08 20:19:14;;;;;;;21.85;4.43;;;;;;;19.93;100.00;101417.13;21204552;27;20055;-74
2023/11/08 20:29:38;;;;;;;25.55;3.67;;;;;;;19.84;100.00;101434.19;21200165;27;20135;-74
2023/11/08 20:40:00;;;;;;;21.40;3.60;;;;;;;19.81;100.00;101431.56;21212762;27;20055;-74
2023/11/08 20:50:24;;;;;;;17.42;3.55;;;;;;;19.75;100.00;101439.66;21197870;27;20055;-74
2023/11/08 21:00:47;;;;;;;21.33;4.45;;;;;;;19.66;100.00;101423.69;21186577;27;20039;-73
2023/11/08 21:11:12;;;;;;;18.85;3.40;;;;;;;19.55;100.00;101412.22;21183752;27;20047;-73
2023/11/08 21:21:34;;;;;;;21.33;3.47;;;;;;;19.44;100.00;101409.59;21231827;27;20051;-73
2023/11/08 21:31:58;;;;;;;18.30;3.58;;;;;;;19.33;100.00;101395.44;21209212;27;20047;-74
2023/11/08 21:42:22;;;;;;;24.00;3.40;;;;;;;19.24;100.00;101383.91;21218230;27;20047;-74
2023/11/08 21:52:46;;;;;;;21.92;3.67;;;;;;;19.21;100.00;101387.53;21218291;27;20047;-75
2023/11/08 22:03:08;;;;;;;20.02;3.72;;;;;;;19.10;100.00;101384.94;21228816;27;20087;-75
2023/11/08 22:13:35;;;;;;;18.48;3.53;;;;;;;19.06;100.00;101383.19;21252840;27;20047;-73
2023/11/08 22:23:57;;;;;;;17.98;3.60;;;;;;;18.93;100.00;101365.47;21229775;27;20051;-74
2023/11/08 22:34:22;;;;;;;18.40;3.53;;;;;;;18.90;100.00;101359.28;21280231;27;20043;-74
2023/11/08 22:44:45;;;;;;;18.45;4.10;;;;;;;18.78;100.00;101360.25;21231591;27;20054;-74
2023/11/08 22:55:11;;;;;;;20.80;4.10;;;;;;;18.59;100.00;101353.28;21223486;27;20985;-74
2023/11/08 23:05:35;;;;;;;24.38;4.40;;;;;;;18.46;100.00;101335.50;21245414;27;20039;-74
2023/11/08 23:15:59;;;;;;;21.35;3.70;;;;;;;18.49;100.00;101322.13;21236188;27;20051;-74
2023/11/08 23:26:22;;;;;;;20.13;3.97;;;;;;;18.46;100.00;101317.69;21226440;27;20073;-74
2023/11/08 23:36:47;;;;;;;18.00;3.78;;;;;;;18.12;100.00;101303.69;21226464;27;20349;-74
2023/11/08 23:47:09;;;;;;;23.27;4.07;;;;;;;18.12;100.00;101295.66;21226531;27;20055;-74
2023/11/08 23:57:33;;;;;;;23.27;4.28;;;;;;;17.94;100.00;101303.78;21187268;27;20053;-74
